Costa Do Sul — CUHA4 — position and weather

sailwx.info

Track history (hours):
 
Tides and Currents Weather Stations Pressure Air Temp Water Temp Dewpoint Dewpoint Depression Visibility Wind Speed Wind Dir Waves Ship Positions

Costa Do Sul

Last reported at 2017-Nov-28 21:03 UTC. Time now 2017-Dec-12 17:51 UTC.
Position N 37°03' W 008°08'.
Warning: this ship's position is 13 days out of date.

Length 17 m.

Type: Fishing. MMSI: 263420270.

Date/timePositionNaut miles runAvg speedWind from/ knotsBaromVisibWave heightAir tempDewpointWater temp
2017-Nov-28 21:03N 37°03' W 008°08'1 7.7
2017-Nov-28 20:58N 37°03' W 008°09'3 7.7
2017-Nov-28 20:30N 37°02' W 008°13'4 7.3
2017-Nov-28 20:00N 37°01' W 008°17'1 2.9
2017-Nov-28 19:30N 37°01' W 008°19'0 0.3
2017-Nov-28 19:00N 37°01' W 008°19'3 6.5
2017-Nov-28 18:30N 37°03' W 008°16'4 7.9
2017-Nov-28 18:00N 37°04' W 008°11'2 0.1
2017-Nov-27 21:14N 37°03' W 008°08'2 6.3
2017-Nov-27 20:58N 37°03' W 008°10'3 6.1
2017-Nov-27 20:31N 37°02' W 008°13'3 6.1
2017-Nov-27 20:00N 37°02' W 008°17'2 4.0
2017-Nov-27 19:30N 37°01' W 008°19'3 5.1
2017-Nov-27 19:00N 37°02' W 008°16'4 7.2
2017-Nov-27 18:29N 37°03' W 008°12'  
2017-Nov-25 01:32N 37°03' W 008°08'0 7.5
2017-Nov-25 01:30N 37°03' W 008°08'4 7.9
2017-Nov-25 01:00N 37°03' W 008°13'4 8.0
2017-Nov-25 00:29N 37°02' W 008°18'2 3.3
2017-Nov-25 00:00N 37°01' W 008°20'0 0.3
2017-Nov-24 23:27N 37°01' W 008°20'0 0.1
2017-Nov-24 22:55N 37°01' W 008°20'0 0.2
2017-Nov-24 22:29N 37°01' W 008°20'0 0.1
2017-Nov-24 21:52N 37°01' W 008°20'0 0.0
2017-Nov-24 21:29N 37°01' W 008°20'0 0.0
2017-Nov-24 20:59N 37°01' W 008°20'0 0.0
2017-Nov-24 20:26N 37°01' W 008°20'0 0.0
2017-Nov-24 19:58N 37°01' W 008°20'0 0.3
2017-Nov-24 19:30N 37°01' W 008°20'1 2.2
2017-Nov-24 18:58N 37°01' W 008°18'4 7.4
2017-Nov-24 18:30N 37°03' W 008°15'4 0.1
2017-Nov-23 01:18N 37°03' W 008°09'2 7.8
2017-Nov-23 01:00N 37°03' W 008°12'3 6.5
2017-Nov-23 00:30N 37°02' W 008°16'1 1.9
2017-Nov-23 00:00N 37°02' W 008°17'0 1.0
2017-Nov-22 23:30N 37°02' W 008°18'0 0.4
2017-Nov-22 23:00N 37°02' W 008°18'0 0.1
2017-Nov-22 22:30N 37°02' W 008°18'0 0.1
2017-Nov-22 22:00N 37°02' W 008°18'0 0.1
2017-Nov-22 21:29N 37°02' W 008°18'0 0.0
2017-Nov-22 21:00N 37°02' W 008°18'0 0.1
2017-Nov-22 20:30N 37°02' W 008°18'0 0.0
2017-Nov-22 20:00N 37°02' W 008°18'0 0.1
2017-Nov-22 19:30N 37°02' W 008°18'  
Track history (hours):
 
Tides and Currents Weather Stations Pressure Air Temp Water Temp Dewpoint Dewpoint Depression Visibility Wind Speed Wind Dir Waves Ship Positions

Costa Do Sul

Last reported at 2017-Nov-28 21:03 UTC. Time now 2017-Dec-12 17:51 UTC.
Position N 37°03' W 008°08'.
Warning: this ship's position is 13 days out of date.

Length 17 m.

Type: Fishing. MMSI: 263420270.

Date/timePositionNaut miles runAvg speedWind from/ knotsBaromVisibWave heightAir tempDewpointWater temp
2017-Nov-28 21:03N 37°03' W 008°08'1 7.7
2017-Nov-28 20:58N 37°03' W 008°09'3 7.7
2017-Nov-28 20:30N 37°02' W 008°13'4 7.3
2017-Nov-28 20:00N 37°01' W 008°17'1 2.9
2017-Nov-28 19:30N 37°01' W 008°19'0 0.3
2017-Nov-28 19:00N 37°01' W 008°19'3 6.5
2017-Nov-28 18:30N 37°03' W 008°16'4 7.9
2017-Nov-28 18:00N 37°04' W 008°11'2 0.1
2017-Nov-27 21:14N 37°03' W 008°08'2 6.3
2017-Nov-27 20:58N 37°03' W 008°10'3 6.1
2017-Nov-27 20:31N 37°02' W 008°13'3 6.1
2017-Nov-27 20:00N 37°02' W 008°17'2 4.0
2017-Nov-27 19:30N 37°01' W 008°19'3 5.1
2017-Nov-27 19:00N 37°02' W 008°16'4 7.2
2017-Nov-27 18:29N 37°03' W 008°12'  
2017-Nov-25 01:32N 37°03' W 008°08'0 7.5
2017-Nov-25 01:30N 37°03' W 008°08'4 7.9
2017-Nov-25 01:00N 37°03' W 008°13'4 8.0
2017-Nov-25 00:29N 37°02' W 008°18'2 3.3
2017-Nov-25 00:00N 37°01' W 008°20'0 0.3
2017-Nov-24 23:27N 37°01' W 008°20'0 0.1
2017-Nov-24 22:55N 37°01' W 008°20'0 0.2
2017-Nov-24 22:29N 37°01' W 008°20'0 0.1
2017-Nov-24 21:52N 37°01' W 008°20'0 0.0
2017-Nov-24 21:29N 37°01' W 008°20'0 0.0
2017-Nov-24 20:59N 37°01' W 008°20'0 0.0
2017-Nov-24 20:26N 37°01' W 008°20'0 0.0
2017-Nov-24 19:58N 37°01' W 008°20'0 0.3
2017-Nov-24 19:30N 37°01' W 008°20'1 2.2
2017-Nov-24 18:58N 37°01' W 008°18'4 7.4
2017-Nov-24 18:30N 37°03' W 008°15'4 0.1
2017-Nov-23 01:18N 37°03' W 008°09'2 7.8
2017-Nov-23 01:00N 37°03' W 008°12'3 6.5
2017-Nov-23 00:30N 37°02' W 008°16'1 1.9
2017-Nov-23 00:00N 37°02' W 008°17'0 1.0
2017-Nov-22 23:30N 37°02' W 008°18'0 0.4
2017-Nov-22 23:00N 37°02' W 008°18'0 0.1
2017-Nov-22 22:30N 37°02' W 008°18'0 0.1
2017-Nov-22 22:00N 37°02' W 008°18'0 0.1
2017-Nov-22 21:29N 37°02' W 008°18'0 0.0
2017-Nov-22 21:00N 37°02' W 008°18'0 0.1
2017-Nov-22 20:30N 37°02' W 008°18'0 0.0
2017-Nov-22 20:00N 37°02' W 008°18'0 0.1
2017-Nov-22 19:30N 37°02' W 008°18'  

Dump ship's entire track history